createdAt,value
2022-08-12T00:01:03.104Z,76.90
2022-08-12T00:03:49.964Z,77.20
2022-08-12T00:06:41.023Z,76.30
2022-08-12T00:09:27.158Z,75.70
2022-08-12T00:12:12.759Z,75.90
2022-08-12T00:14:58.268Z,76.60
2022-08-12T00:17:43.617Z,76.60
2022-08-12T00:20:29.761Z,77.30
2022-08-12T00:23:16.773Z,78.60
2022-08-12T00:26:23.794Z,79.10
2022-08-12T00:29:12.146Z,79.00
2022-08-12T00:32:00.627Z,80.30
2022-08-12T00:34:49.286Z,79.00
2022-08-12T00:37:35.935Z,78.00
2022-08-12T00:40:25.116Z,78.50
2022-08-12T00:42:53.683Z,78.30
2022-08-12T00:45:21.250Z,79.10
2022-08-12T00:47:50.300Z,80.50
2022-08-12T00:50:19.548Z,81.50
2022-08-12T00:52:48.119Z,82.40
2022-08-12T00:55:15.700Z,82.70
2022-08-12T00:57:47.724Z,82.50
2022-08-12T01:00:21.893Z,81.90
2022-08-12T01:02:55.648Z,81.10
2022-08-12T01:05:42.999Z,81.80
2022-08-12T01:08:28.844Z,82.90
2022-08-12T01:11:15.210Z,84.20
2022-08-12T01:13:47.380Z,84.70
2022-08-12T01:16:17.868Z,84.30
2022-08-12T01:18:45.061Z,83.40
2022-08-12T01:21:27.166Z,83.00
2022-08-12T01:24:30.728Z,83.00
2022-08-12T01:27:00.121Z,84.00
2022-08-12T01:29:33.320Z,85.10
2022-08-12T01:32:05.374Z,85.30
2022-08-12T01:34:37.403Z,84.90
2022-08-12T01:37:08.236Z,84.70
2022-08-12T01:40:35.436Z,85.20
2022-08-12T01:42:34.023Z,85.90
2022-08-12T01:45:02.926Z,86.60
2022-08-12T01:48:00.642Z,87.50
2022-08-12T01:50:48.004Z,88.00
2022-08-12T01:53:15.952Z,88.70
2022-08-12T01:55:46.331Z,89.80
2022-08-12T01:58:55.373Z,90.40
2022-08-12T02:01:27.793Z,90.90
2022-08-12T02:04:22.896Z,91.50
2022-08-12T02:07:14.343Z,91.70
2022-08-12T02:10:50.643Z,91.80
2022-08-12T02:13:41.841Z,91.20
2022-08-12T02:16:11.803Z,91.20
2022-08-12T02:18:58.534Z,91.40
2022-08-12T02:21:51.442Z,91.60
2022-08-12T02:24:23.824Z,91.90
2022-08-12T02:26:51.548Z,92.70
2022-08-12T02:29:20.158Z,93.30
2022-08-12T02:31:47.640Z,94.30
2022-08-12T02:34:16.582Z,94.70
2022-08-12T02:36:45.047Z,95.00
2022-08-12T02:39:18.516Z,94.60
2022-08-12T02:41:48.646Z,94.50
2022-08-12T02:44:18.080Z,94.30
2022-08-12T02:46:49.574Z,94.40
2022-08-12T02:49:23.552Z,94.80
2022-08-12T02:51:50.658Z,94.80
2022-08-12T02:54:17.621Z,95.10
2022-08-12T02:56:50.502Z,95.90
2022-08-12T02:59:23.036Z,96.50
2022-08-12T03:01:55.064Z,96.80
2022-08-12T03:04:26.491Z,97.20
2022-08-12T03:07:12.796Z,97.40
2022-08-12T03:10:04.194Z,97.10
2022-08-12T03:12:48.982Z,96.40
2022-08-12T03:15:19.274Z,96.80
2022-08-12T03:18:24.963Z,96.50
2022-08-12T03:20:42.340Z,95.40
2022-08-12T03:23:19.462Z,95.50
2022-08-12T03:26:01.471Z,95.70
2022-08-12T03:28:48.992Z,97.10
2022-08-12T03:31:17.291Z,97.40
2022-08-12T03:34:00.761Z,97.20
2022-08-12T03:36:30.799Z,97.70
2022-08-12T03:39:18.258Z,98.00
2022-08-12T03:42:01.565Z,98.50
2022-08-12T03:44:52.209Z,98.80
2022-08-12T03:48:00.439Z,99.20
2022-08-12T03:50:46.671Z,99.40
2022-08-12T03:53:35.674Z,99.50
2022-08-12T03:56:21.095Z,99.70
2022-08-12T03:59:07.100Z,99.80
2022-08-12T04:01:40.695Z,99.80
2022-08-12T04:04:10.526Z,99.90
2022-08-12T04:06:44.893Z,99.90
2022-08-12T04:09:16.612Z,99.90
2022-08-12T04:12:04.297Z,99.90
2022-08-12T04:14:32.262Z,99.90
2022-08-12T04:16:59.736Z,99.90
2022-08-12T04:19:27.543Z,99.90
2022-08-12T04:22:01.804Z,99.90
2022-08-12T04:24:36.496Z,99.90
2022-08-12T04:27:08.911Z,99.90
2022-08-12T04:30:17.118Z,99.90
2022-08-12T04:32:25.706Z,99.90
2022-08-12T04:34:53.360Z,99.90
2022-08-12T04:37:20.594Z,99.90
2022-08-12T04:39:48.818Z,99.90
2022-08-12T04:42:16.171Z,99.90
2022-08-12T04:44:44.360Z,99.90
2022-08-12T04:47:12.896Z,99.90
2022-08-12T04:49:40.951Z,99.90
2022-08-12T04:52:08.305Z,99.90
2022-08-12T04:54:35.686Z,99.90
2022-08-12T04:57:03.222Z,99.90
2022-08-12T04:59:46.781Z,99.90
2022-08-12T05:02:21.050Z,99.90
2022-08-12T05:05:00.723Z,99.90
2022-08-12T05:07:28.237Z,99.90
2022-08-12T05:10:00.007Z,99.90
2022-08-12T05:12:42.950Z,99.90
2022-08-12T05:15:27.981Z,99.90
2022-08-12T05:17:56.385Z,99.90
2022-08-12T05:20:27.146Z,99.90
2022-08-12T05:23:26.049Z,99.90
2022-08-12T05:25:57.026Z,99.90
2022-08-12T05:28:26.867Z,99.90
2022-08-12T05:30:54.271Z,99.90
2022-08-12T05:33:23.593Z,99.90
2022-08-12T05:35:50.410Z,99.90
2022-08-12T05:38:38.026Z,99.90
2022-08-12T05:41:18.900Z,99.90
2022-08-12T05:43:53.619Z,99.90
2022-08-12T05:46:22.240Z,99.90
2022-08-12T05:48:49.873Z,99.90
2022-08-12T05:51:17.504Z,99.90
2022-08-12T05:53:44.673Z,99.90
2022-08-12T05:56:22.414Z,99.90
2022-08-12T05:58:51.861Z,99.90
2022-08-12T06:02:11.538Z,99.90
2022-08-12T06:04:08.597Z,99.90
2022-08-12T06:06:39.679Z,99.90
2022-08-12T06:09:06.589Z,99.90
2022-08-12T06:11:34.387Z,99.90
2022-08-12T06:14:01.529Z,99.90
2022-08-12T06:16:38.757Z,99.90
2022-08-12T06:19:07.775Z,99.80
2022-08-12T06:21:37.589Z,99.50
2022-08-12T06:24:06.086Z,99.40
2022-08-12T06:26:34.483Z,99.50
2022-08-12T06:29:01.411Z,99.80
2022-08-12T06:31:28.477Z,99.40
2022-08-12T06:35:19.263Z,99.00
2022-08-12T06:36:43.170Z,97.40
2022-08-12T06:39:14.611Z,93.20
2022-08-12T06:42:04.965Z,86.80
2022-08-12T06:44:50.368Z,81.50
2022-08-12T06:47:19.491Z,76.50
2022-08-12T06:49:46.696Z,73.20
2022-08-12T06:52:13.590Z,70.90
2022-08-12T06:54:44.240Z,66.40
2022-08-12T06:58:06.631Z,64.00
2022-08-12T06:59:58.069Z,62.40
2022-08-12T07:02:25.804Z,62.90
2022-08-12T07:04:55.264Z,60.90
2022-08-12T07:07:22.190Z,60.60
2022-08-12T07:10:03.854Z,60.80
2022-08-12T07:12:35.945Z,59.40
2022-08-12T07:15:04.442Z,58.50
2022-08-12T07:17:37.265Z,56.90
2022-08-12T07:20:16.517Z,57.60
2022-08-12T07:22:47.592Z,57.40
2022-08-12T07:25:41.116Z,56.90
2022-08-12T07:28:29.373Z,56.30
2022-08-12T07:30:57.404Z,57.90
2022-08-12T07:33:30.041Z,57.80
2022-08-12T07:35:59.418Z,57.70
2022-08-12T07:38:29.038Z,56.00
2022-08-12T07:41:03.123Z,55.00
2022-08-12T07:43:31.821Z,54.50
2022-08-12T07:46:02.865Z,54.30
2022-08-12T07:48:36.798Z,55.50
2022-08-12T07:51:04.239Z,54.90
2022-08-12T07:53:31.505Z,53.80
2022-08-12T07:55:58.607Z,52.60
2022-08-12T07:58:26.242Z,51.00
2022-08-12T08:00:57.037Z,51.50
2022-08-12T08:03:25.793Z,52.60
2022-08-12T08:05:52.514Z,53.00
2022-08-12T08:08:22.276Z,52.50
2022-08-12T08:10:51.867Z,51.00
2022-08-12T08:13:20.787Z,50.30
2022-08-12T08:16:04.165Z,51.00
2022-08-12T08:18:33.024Z,50.30
2022-08-12T08:20:59.773Z,50.00
2022-08-12T08:23:46.982Z,49.90
2022-08-12T08:26:24.792Z,48.30
2022-08-12T08:28:51.520Z,48.80
2022-08-12T08:31:19.531Z,48.40
2022-08-12T08:34:09.652Z,50.50
2022-08-12T08:36:33.146Z,49.80
2022-08-12T08:39:00.201Z,48.50
2022-08-12T08:42:15.750Z,47.50
2022-08-12T08:44:38.250Z,47.60
2022-08-12T08:47:11.316Z,45.70
2022-08-12T08:49:39.404Z,46.70
2022-08-12T08:52:10.014Z,45.90
2022-08-12T08:54:37.838Z,43.80
2022-08-12T08:57:07.974Z,45.10
2022-08-12T08:59:35.143Z,46.80
2022-08-12T09:02:02.673Z,47.80
2022-08-12T09:05:12.132Z,46.80
2022-08-12T09:07:50.985Z,45.50
2022-08-12T09:15:59.745Z,43.60
2022-08-12T09:18:33.155Z,43.40
2022-08-12T09:21:01.951Z,42.90
2022-08-12T09:23:58.864Z,42.80
2022-08-12T09:26:19.052Z,42.30
2022-08-12T09:32:06.550Z,42.10
2022-08-12T09:34:29.836Z,41.50
2022-08-12T09:37:02.632Z,40.70
2022-08-12T09:40:05.066Z,42.20
2022-08-12T09:43:11.231Z,41.10
2022-08-12T09:46:20.042Z,41.50
2022-08-12T09:48:35.275Z,41.00
2022-08-12T09:51:16.539Z,38.90
2022-08-12T09:54:08.638Z,37.50
2022-08-12T09:57:01.848Z,39.10
2022-08-12T10:00:15.279Z,41.20
2022-08-12T10:02:45.376Z,41.90
2022-08-12T10:04:59.466Z,40.30
2022-08-12T10:07:39.975Z,39.40
2022-08-12T10:10:22.916Z,39.80
2022-08-12T10:13:17.122Z,38.70
2022-08-12T10:16:05.182Z,39.50
2022-08-12T10:18:35.353Z,38.60
2022-08-12T10:21:10.517Z,39.00
2022-08-12T10:23:40.087Z,37.90
2022-08-12T10:26:38.115Z,39.40
2022-08-12T10:30:03.822Z,39.50
2022-08-12T10:32:44.285Z,37.20
2022-08-12T10:35:10.265Z,37.60
2022-08-12T10:38:34.557Z,39.10
2022-08-12T10:40:31.647Z,39.80
2022-08-12T10:43:17.871Z,37.40
2022-08-12T10:45:49.755Z,38.60
2022-08-12T10:48:27.163Z,37.30
2022-08-12T10:51:59.326Z,37.40
2022-08-12T10:54:00.819Z,37.00
2022-08-12T10:56:34.807Z,36.90
2022-08-12T10:59:10.573Z,37.00
2022-08-12T11:04:16.684Z,36.90
2022-08-12T11:04:39.523Z,35.80
2022-08-12T11:08:33.798Z,35.00
2022-08-12T11:10:02.507Z,35.30
2022-08-12T11:12:55.986Z,35.40
2022-08-12T11:15:24.325Z,37.40
2022-08-12T11:18:07.761Z,37.90
2022-08-12T11:20:40.034Z,38.10
2022-08-12T11:23:25.458Z,38.30
2022-08-12T11:25:57.855Z,37.40
2022-08-12T11:28:33.307Z,36.60
2022-08-12T11:31:03.101Z,36.40
2022-08-12T11:34:05.425Z,36.60
2022-08-12T11:36:18.279Z,37.50
2022-08-12T11:38:50.580Z,36.80
2022-08-12T11:41:28.165Z,37.80
2022-08-12T11:44:27.624Z,37.50
2022-08-12T11:46:51.339Z,36.80
2022-08-12T11:49:31.512Z,36.10
2022-08-12T11:52:00.517Z,35.70
2022-08-12T11:54:29.767Z,36.40
2022-08-12T11:56:59.918Z,36.00
2022-08-12T12:02:18.869Z,37.00
2022-08-12T12:04:52.571Z,35.00
2022-08-12T12:07:22.053Z,33.80
2022-08-12T12:09:53.420Z,34.70
2022-08-12T12:12:22.455Z,35.60
2022-08-12T12:14:54.512Z,34.90
2022-08-12T12:17:23.666Z,34.50
2022-08-12T12:19:50.588Z,34.10
2022-08-12T12:22:23.139Z,33.70
2022-08-12T12:24:51.126Z,33.10
2022-08-12T12:27:39.333Z,33.70
2022-08-12T12:30:18.299Z,34.30
2022-08-12T12:32:55.536Z,33.90
2022-08-12T12:36:18.868Z,34.50
2022-08-12T12:38:12.307Z,33.70
2022-08-12T12:40:43.754Z,34.70
2022-08-12T12:43:12.465Z,34.20
2022-08-12T12:45:44.674Z,34.60
2022-08-12T12:48:18.609Z,35.60
2022-08-12T12:50:51.406Z,36.00
2022-08-12T12:54:05.320Z,35.50
2022-08-12T12:56:17.788Z,34.80
2022-08-12T12:58:44.554Z,34.10
2022-08-12T13:01:26.843Z,33.40
2022-08-12T13:04:01.699Z,34.20
2022-08-12T13:06:29.942Z,34.80
2022-08-12T13:08:57.597Z,34.50
2022-08-12T13:11:42.184Z,34.60
2022-08-12T13:14:29.050Z,35.70
2022-08-12T13:17:02.346Z,35.10
2022-08-12T13:19:37.608Z,34.60
2022-08-12T13:22:18.464Z,35.90
2022-08-12T13:24:52.100Z,35.60
2022-08-12T13:27:28.323Z,35.40
2022-08-12T13:30:04.323Z,34.70
2022-08-12T13:32:37.218Z,35.10
2022-08-12T13:35:19.287Z,37.00
2022-08-12T13:37:55.792Z,37.80
2022-08-12T13:40:31.280Z,38.60
2022-08-12T13:42:58.906Z,38.90
2022-08-12T13:45:29.130Z,38.50
2022-08-12T13:47:58.522Z,38.50
2022-08-12T13:50:38.407Z,38.80
2022-08-12T13:53:24.532Z,39.50
2022-08-12T13:55:59.748Z,39.80
2022-08-12T13:58:30.254Z,40.30
2022-08-12T14:00:58.051Z,39.90
2022-08-12T14:03:28.511Z,40.00
2022-08-12T14:06:15.422Z,40.00
2022-08-12T14:08:43.932Z,40.80
2022-08-12T14:11:12.470Z,40.20
2022-08-12T14:14:03.979Z,40.20
2022-08-12T14:16:46.619Z,41.30
2022-08-12T14:19:22.053Z,40.90
2022-08-12T14:21:59.040Z,41.10
2022-08-12T14:24:27.333Z,41.20
2022-08-12T14:26:58.690Z,41.30
2022-08-12T14:29:55.829Z,42.00
2022-08-12T14:32:17.528Z,42.30
2022-08-12T14:34:51.320Z,42.50
2022-08-12T14:37:55.324Z,42.70
2022-08-12T14:40:06.850Z,42.60
2022-08-12T14:42:34.050Z,43.10
2022-08-12T14:45:02.201Z,43.20
2022-08-12T14:47:35.249Z,42.60
2022-08-12T14:50:57.303Z,42.20
2022-08-12T14:56:59.085Z,41.70
2022-08-12T14:58:31.804Z,42.50
2022-08-12T15:01:17.412Z,42.80
2022-08-12T15:03:58.005Z,42.10
2022-08-12T15:06:44.184Z,42.10
2022-08-12T15:09:16.167Z,42.20
2022-08-12T15:11:55.192Z,42.80
2022-08-12T15:14:25.341Z,42.80
2022-08-12T15:16:52.801Z,43.10
2022-08-12T15:20:31.671Z,43.30
2022-08-12T15:22:35.361Z,42.70
2022-08-12T15:24:54.060Z,43.20
2022-08-12T15:27:22.170Z,42.70
2022-08-12T15:29:58.101Z,42.80
2022-08-12T15:32:32.344Z,42.60
2022-08-12T15:35:00.537Z,42.60
2022-08-12T15:38:10.420Z,42.90
2022-08-12T15:40:14.648Z,42.60
2022-08-12T15:42:50.941Z,42.80
2022-08-12T15:45:23.461Z,43.00
2022-08-12T15:48:04.562Z,42.90
2022-08-12T15:50:45.549Z,42.40
2022-08-12T15:53:37.655Z,42.80
2022-08-12T15:56:07.780Z,42.60
2022-08-12T15:58:41.763Z,43.10
2022-08-12T16:01:14.747Z,42.30
2022-08-12T16:03:46.149Z,42.50
2022-08-12T16:06:43.457Z,42.30
2022-08-12T16:09:21.596Z,42.70
2022-08-12T16:11:48.817Z,43.00
2022-08-12T16:14:16.488Z,42.60
2022-08-12T16:16:43.780Z,43.00
2022-08-12T16:20:02.850Z,43.40
2022-08-12T16:22:07.107Z,43.20
2022-08-12T16:24:43.492Z,43.20
2022-08-12T16:27:13.507Z,43.10
2022-08-12T16:29:52.548Z,43.30
2022-08-12T16:32:23.108Z,44.20
2022-08-12T16:34:55.608Z,43.40
2022-08-12T16:37:32.662Z,42.70
2022-08-12T16:40:11.914Z,42.70
2022-08-12T16:42:54.380Z,43.20
2022-08-12T16:45:32.086Z,43.30
2022-08-12T16:48:34.767Z,43.00
2022-08-12T16:51:09.573Z,43.20
2022-08-12T16:53:43.871Z,43.10
2022-08-12T16:56:14.989Z,43.90
2022-08-12T16:58:43.400Z,43.50
2022-08-12T17:01:14.455Z,43.00
2022-08-12T17:03:52.036Z,42.80
2022-08-12T17:06:22.691Z,43.10
2022-08-12T17:09:02.737Z,42.80
2022-08-12T17:11:33.259Z,42.50
2022-08-12T17:14:01.491Z,43.10
2022-08-12T17:16:30.180Z,43.10
2022-08-12T17:19:03.293Z,43.40
2022-08-12T17:21:41.767Z,42.90
2022-08-12T17:24:30.647Z,43.40
2022-08-12T17:26:59.944Z,43.70
2022-08-12T17:30:00.779Z,44.00
2022-08-12T17:32:14.660Z,44.10
2022-08-12T17:35:00.602Z,44.10
2022-08-12T17:37:27.688Z,44.10
2022-08-12T17:40:15.054Z,44.20
2022-08-12T17:42:43.468Z,44.40
2022-08-12T17:45:19.469Z,43.70
2022-08-12T17:48:01.730Z,43.60
2022-08-12T17:50:38.777Z,43.20
2022-08-12T17:53:07.876Z,43.40
2022-08-12T17:55:40.132Z,43.50
2022-08-12T17:58:13.009Z,43.80
2022-08-12T18:00:45.767Z,43.80
2022-08-12T18:03:58.149Z,43.70
2022-08-12T18:06:08.713Z,44.20
2022-08-12T18:08:54.739Z,44.20
2022-08-12T18:12:03.869Z,44.20
2022-08-12T18:14:30.049Z,44.60
2022-08-12T18:17:01.590Z,44.60
2022-08-12T18:19:34.271Z,44.80
2022-08-12T18:22:22.033Z,44.90
2022-08-12T18:25:04.972Z,44.90
2022-08-12T18:27:44.558Z,45.00
2022-08-12T18:30:16.471Z,45.30
2022-08-12T18:33:03.829Z,45.70
2022-08-12T18:35:47.286Z,45.80
2022-08-12T18:38:22.365Z,46.20
2022-08-12T18:41:09.381Z,45.80
2022-08-12T18:43:57.381Z,46.00
2022-08-12T18:46:48.932Z,46.10
2022-08-12T18:49:37.648Z,46.00
2022-08-12T18:52:11.545Z,46.00
2022-08-12T18:54:49.390Z,46.10
2022-08-12T18:58:05.919Z,45.90
2022-08-12T19:00:22.183Z,45.80
2022-08-12T19:02:51.869Z,45.80
2022-08-12T19:05:20.545Z,46.00
2022-08-12T19:08:01.555Z,46.30
2022-08-12T19:10:31.460Z,46.30
2022-08-12T19:13:23.609Z,46.60
2022-08-12T19:15:53.254Z,47.00
2022-08-12T19:18:22.316Z,47.20
2022-08-12T19:20:50.728Z,47.60
2022-08-12T19:23:21.287Z,48.50
2022-08-12T19:26:01.312Z,48.20
2022-08-12T19:28:35.677Z,48.00
2022-08-12T19:31:56.387Z,48.20
2022-08-12T19:35:32.865Z,48.20
2022-08-12T19:38:02.483Z,47.80
2022-08-12T19:40:20.355Z,49.10
2022-08-12T19:43:00.980Z,49.20
2022-08-12T19:45:41.880Z,49.70
2022-08-12T19:48:18.374Z,50.00
2022-08-12T19:50:50.079Z,49.20
2022-08-12T19:53:27.634Z,49.00
2022-08-12T19:55:57.133Z,48.80
2022-08-12T19:58:25.573Z,49.20
2022-08-12T20:00:55.964Z,50.10
2022-08-12T20:03:37.960Z,49.00
2022-08-12T20:06:21.747Z,48.90
2022-08-12T20:08:55.977Z,49.60
2022-08-12T20:12:11.891Z,50.30
2022-08-12T20:14:19.319Z,50.70
2022-08-12T20:16:54.477Z,51.40
2022-08-12T20:19:53.227Z,51.00
2022-08-12T20:22:29.896Z,50.70
2022-08-12T20:25:00.814Z,52.30
2022-08-12T20:28:03.659Z,51.40
2022-08-12T20:30:15.351Z,50.80
2022-08-12T20:32:56.035Z,51.50
2022-08-12T20:35:24.958Z,50.80
2022-08-12T20:38:26.141Z,51.10
2022-08-12T20:40:53.362Z,52.00
2022-08-12T20:43:24.225Z,52.10
2022-08-12T20:45:58.078Z,51.90
2022-08-12T20:48:28.725Z,52.20
2022-08-12T20:51:04.406Z,52.50
2022-08-12T20:53:57.909Z,52.00
2022-08-12T20:56:31.099Z,52.60
2022-08-12T20:59:10.644Z,52.30
2022-08-12T21:01:46.706Z,52.30
2022-08-12T21:04:35.039Z,53.80
2022-08-12T21:07:08.318Z,53.80
2022-08-12T21:09:40.655Z,52.40
2022-08-12T21:12:28.243Z,52.40
2022-08-12T21:15:00.784Z,51.50
2022-08-12T21:18:09.237Z,51.50
2022-08-12T21:20:32.585Z,51.70
2022-08-12T21:22:59.405Z,52.00
2022-08-12T21:25:44.334Z,52.00
2022-08-12T21:28:12.835Z,52.70
2022-08-12T21:30:54.885Z,53.10
2022-08-12T21:34:06.372Z,52.00
2022-08-12T21:36:32.435Z,52.20
2022-08-12T21:39:18.868Z,52.40
2022-08-12T21:41:53.252Z,52.80
2022-08-12T21:45:43.877Z,52.90
2022-08-12T21:47:21.444Z,53.20
2022-08-12T21:49:54.080Z,53.70
2022-08-12T21:52:28.331Z,53.90
2022-08-12T21:55:18.055Z,53.90
2022-08-12T21:57:53.802Z,55.30
2022-08-12T22:00:32.327Z,55.50
2022-08-12T22:03:42.654Z,56.30
2022-08-12T22:06:20.232Z,57.30
2022-08-12T22:09:02.132Z,57.50
2022-08-12T22:11:41.176Z,55.60
2022-08-12T22:14:10.260Z,56.90
2022-08-12T22:16:49.313Z,56.50
2022-08-12T22:19:19.244Z,56.40
2022-08-12T22:21:52.128Z,55.90
2022-08-12T22:24:26.419Z,55.80
2022-08-12T22:26:55.577Z,56.20
2022-08-12T22:29:40.719Z,57.50
2022-08-12T22:32:11.285Z,57.20
2022-08-12T22:34:39.228Z,57.10
2022-08-12T22:37:20.068Z,56.60
2022-08-12T22:39:49.265Z,56.20
2022-08-12T22:42:35.805Z,56.10
2022-08-12T22:45:23.447Z,56.10
2022-08-12T22:47:54.998Z,56.70
2022-08-12T22:50:27.843Z,57.50
2022-08-12T22:53:15.075Z,57.20
2022-08-12T22:56:00.230Z,57.30
2022-08-12T22:58:36.773Z,58.30
2022-08-12T23:01:07.679Z,58.40
2022-08-12T23:03:49.409Z,59.20
2022-08-12T23:06:23.689Z,59.70
2022-08-12T23:08:52.224Z,59.90
2022-08-12T23:11:23.649Z,60.70
2022-08-12T23:13:56.705Z,60.20
2022-08-12T23:16:33.404Z,60.60
2022-08-12T23:19:17.643Z,60.80
2022-08-12T23:22:04.308Z,61.00
2022-08-12T23:24:36.126Z,61.60
2022-08-12T23:27:22.387Z,61.60
2022-08-12T23:29:59.778Z,62.00
2022-08-12T23:32:37.111Z,62.20
2022-08-12T23:35:06.680Z,61.50
2022-08-12T23:37:46.350Z,61.10
2022-08-12T23:40:18.137Z,60.70
2022-08-12T23:42:46.901Z,60.60
2022-08-12T23:45:20.220Z,61.10
2022-08-12T23:48:00.043Z,61.10
2022-08-12T23:50:33.993Z,61.10
2022-08-12T23:53:05.630Z,61.20
2022-08-12T23:55:40.627Z,60.60
2022-08-12T23:58:22.678Z,61.70
